Terminal Aerodrome Forecast
Issued by NWS

Home | Current Version | Previous Version | Graphics & Text | Print | Product List | Glossary On
Versions: 1 2 3 4 5 6 7 8 9 10 11 12 13 14 15
954
FTUS43 KFGF 231139
TAFBJI
TAF
KBJI 231139Z 2312/2412 VRB03KT P6SM FEW060
      TEMPO 2312/2313 1/2SM FG
     FM231300 15005KT P6SM FEW150
     FM240000 15009KT P6SM SCT060 BKN200
     FM241000 16008KT P6SM BKN110=

USA.gov is the U.S. government's official web portal to all federal, state and local government web resources and services.